Time;durP1;ratioP1;P1;durP2;ratioP2;P2;SDS_P1;SDS_P2;PMS_P1;PMS_P2;Temp;Humidity;BMP_temperature;BMP_pressure;BME280_temperature;BME280_humidity;BME280_pressure;Samples;Min_cycle;Max_cycle;Signal;HPM_P1;HPM_P2
2022/12/16 00:01:37;;;;;;;58.93;29.73;;;;;;;;;;4941944;28;20683;-62
2022/12/16 00:04:04;;;;;;;54.87;27.43;;;;;;;;;;4944919;28;20240;-63
2022/12/16 00:06:32;;;;;;;55.67;28.13;;;;;;;;;;4940634;28;20225;-62
2022/12/16 00:09:00;;;;;;;53.23;27.80;;;;;;;;;;4949498;29;20232;-63
2022/12/16 00:11:30;;;;;;;51.60;27.13;;;;;;;;;;4947493;28;20279;-63
2022/12/16 00:13:58;;;;;;;58.07;29.37;;;;;;;;;;4945761;28;20236;-63
2022/12/16 00:16:25;;;;;;;52.03;27.37;;;;;;;;;;4944794;28;20240;-62
2022/12/16 00:18:52;;;;;;;45.97;26.20;;;;;;;;;;4943155;28;20589;-62
2022/12/16 00:21:20;;;;;;;47.70;25.70;;;;;;;;;;4931193;28;20757;-63
2022/12/16 00:23:48;;;;;;;43.87;24.67;;;;;;;;;;4928693;28;20219;-62
2022/12/16 00:26:15;;;;;;;46.57;25.03;;;;;;;;;;4930623;28;20213;-63
2022/12/16 00:28:43;;;;;;;49.13;26.40;;;;;;;;;;4927151;28;22547;-63
2022/12/16 00:31:11;;;;;;;52.43;28.07;;;;;;;;;;4917490;28;20233;-63
2022/12/16 00:33:39;;;;;;;52.07;26.80;;;;;;;;;;4926458;28;20312;-62
2022/12/16 00:36:06;;;;;;;61.13;29.03;;;;;;;;;;4920052;28;20208;-63
2022/12/16 00:38:34;;;;;;;55.90;27.90;;;;;;;;;;4921873;28;21550;-64
2022/12/16 00:41:02;;;;;;;59.90;29.70;;;;;;;;;;4925430;28;20633;-62
2022/12/16 00:43:29;;;;;;;64.70;30.23;;;;;;;;;;4926884;28;20250;-63
2022/12/16 00:45:57;;;;;;;66.57;31.70;;;;;;;;;;4923431;28;21171;-62
2022/12/16 00:48:24;;;;;;;67.70;31.13;;;;;;;;;;4929024;28;20233;-62
2022/12/16 00:50:52;;;;;;;63.97;28.50;;;;;;;;;;4930481;28;20311;-62
2022/12/16 00:53:22;;;;;;;63.70;29.87;;;;;;;;;;4928576;28;20597;-62
2022/12/16 00:55:50;;;;;;;61.57;29.80;;;;;;;;;;4924686;28;20344;-62
2022/12/16 00:58:18;;;;;;;62.87;30.30;;;;;;;;;;4922815;28;20211;-64
2022/12/16 01:00:45;;;;;;;61.40;29.07;;;;;;;;;;4931101;28;20262;-61
2022/12/16 01:03:12;;;;;;;69.57;30.43;;;;;;;;;;4929510;28;20218;-63
2022/12/16 01:05:47;;;;;;;61.47;29.63;;;;;;;;;;4932024;28;20262;-62
2022/12/16 01:08:15;;;;;;;62.03;30.23;;;;;;;;;;4927577;28;20246;-62
2022/12/16 01:10:42;;;;;;;60.33;29.17;;;;;;;;;;4928143;28;20290;-62
2022/12/16 01:13:10;;;;;;;60.70;29.27;;;;;;;;;;4922914;28;20970;-63
2022/12/16 01:15:37;;;;;;;59.60;28.80;;;;;;;;;;4932384;28;20222;-62
2022/12/16 01:18:05;;;;;;;57.70;27.87;;;;;;;;;;4927729;28;20292;-63
2022/12/16 01:20:33;;;;;;;62.70;29.37;;;;;;;;;;4932313;28;20266;-62
2022/12/16 01:23:00;;;;;;;55.20;27.53;;;;;;;;;;4924186;28;20215;-62
2022/12/16 01:25:28;;;;;;;58.93;28.13;;;;;;;;;;4933478;28;20295;-62
2022/12/16 01:27:55;;;;;;;61.27;29.67;;;;;;;;;;4916872;28;20938;-63
2022/12/16 01:30:23;;;;;;;66.43;29.23;;;;;;;;;;4927634;28;20233;-62
2022/12/16 01:32:51;;;;;;;72.70;29.83;;;;;;;;;;4931331;28;20712;-61
2022/12/16 01:35:19;;;;;;;67.83;27.40;;;;;;;;;;4930071;28;20238;-62
2022/12/16 01:38:06;;;;;;;60.03;28.00;;;;;;;;;;4930923;28;20202;-63
2022/12/16 01:40:34;;;;;;;69.37;26.23;;;;;;;;;;4935497;28;20238;-61
2022/12/16 01:43:01;;;;;;;66.00;27.10;;;;;;;;;;4927231;28;20213;-61
2022/12/16 01:45:33;;;;;;;51.57;25.43;;;;;;;;;;4922734;28;20302;-61
2022/12/16 01:48:04;;;;;;;48.10;24.20;;;;;;;;;;4928015;28;20285;-61
2022/12/16 01:50:32;;;;;;;46.53;23.13;;;;;;;;;;4930870;28;20725;-63
2022/12/16 01:53:02;;;;;;;46.90;24.57;;;;;;;;;;4922645;28;20293;-63
2022/12/16 01:55:36;;;;;;;45.03;22.47;;;;;;;;;;4927981;28;20677;-63
2022/12/16 01:58:15;;;;;;;38.73;21.10;;;;;;;;;;4937489;28;20214;-63
2022/12/16 02:00:42;;;;;;;38.20;20.30;;;;;;;;;;4943683;28;20333;-63
2022/12/16 02:03:10;;;;;;;36.63;20.37;;;;;;;;;;4937947;28;20261;-63
2022/12/16 02:05:42;;;;;;;35.23;20.17;;;;;;;;;;4944231;28;20225;-63
2022/12/16 02:08:09;;;;;;;34.73;19.57;;;;;;;;;;4931190;28;20249;-63
2022/12/16 02:10:40;;;;;;;33.60;18.40;;;;;;;;;;4925592;28;20313;-63
2022/12/16 02:13:26;;;;;;;29.23;17.73;;;;;;;;;;4915909;28;20220;-63
2022/12/16 02:16:07;;;;;;;34.37;18.07;;;;;;;;;;4924212;28;20833;-64
2022/12/16 02:18:46;;;;;;;30.53;17.43;;;;;;;;;;4927047;28;20337;-62
2022/12/16 02:21:31;;;;;;;29.43;17.73;;;;;;;;;;4924786;28;20325;-64
2022/12/16 02:24:18;;;;;;;27.10;16.90;;;;;;;;;;4920302;28;20210;-63
2022/12/16 02:27:04;;;;;;;28.23;17.03;;;;;;;;;;4927373;28;20315;-63
2022/12/16 02:29:53;;;;;;;29.10;17.37;;;;;;;;;;4920203;28;20207;-63
2022/12/16 02:32:21;;;;;;;28.60;16.80;;;;;;;;;;4922840;28;20237;-63
2022/12/16 02:35:07;;;;;;;30.00;17.73;;;;;;;;;;4931988;28;20296;-63
2022/12/16 02:37:34;;;;;;;33.57;18.63;;;;;;;;;;4927816;28;20217;-62
2022/12/16 02:40:03;;;;;;;32.17;18.43;;;;;;;;;;4933232;28;20223;-63
2022/12/16 02:42:34;;;;;;;30.00;18.07;;;;;;;;;;4923901;28;20206;-63
2022/12/16 02:45:07;;;;;;;32.57;19.70;;;;;;;;;;4927159;28;20594;-61
2022/12/16 02:47:34;;;;;;;30.60;19.83;;;;;;;;;;4931820;28;20225;-63
2022/12/16 02:50:02;;;;;;;31.50;19.20;;;;;;;;;;4925977;28;20237;-62
2022/12/16 02:52:31;;;;;;;35.40;20.53;;;;;;;;;;4932421;28;21043;-62
2022/12/16 02:55:02;;;;;;;38.63;21.30;;;;;;;;;;4923947;28;21210;-62
2022/12/16 02:57:48;;;;;;;36.30;20.63;;;;;;;;;;4929339;28;20352;-64
2022/12/16 03:00:22;;;;;;;35.83;20.63;;;;;;;;;;4923945;28;20308;-62
2022/12/16 03:02:53;;;;;;;36.90;21.70;;;;;;;;;;4928887;28;20887;-63
2022/12/16 03:05:32;;;;;;;38.97;21.63;;;;;;;;;;4927159;28;20896;-61
2022/12/16 03:08:02;;;;;;;41.57;22.67;;;;;;;;;;4933485;28;20341;-62
2022/12/16 03:10:31;;;;;;;41.97;22.43;;;;;;;;;;4920027;28;20237;-62
2022/12/16 03:13:01;;;;;;;44.70;21.97;;;;;;;;;;4920910;28;20209;-63
2022/12/16 03:15:31;;;;;;;41.23;23.20;;;;;;;;;;4930950;28;20326;-63
2022/12/16 03:17:59;;;;;;;39.97;21.93;;;;;;;;;;4926799;28;20252;-62
2022/12/16 03:20:29;;;;;;;42.53;22.13;;;;;;;;;;4926054;28;20317;-61
2022/12/16 03:22:58;;;;;;;40.63;23.03;;;;;;;;;;4926365;28;20758;-62
2022/12/16 03:25:27;;;;;;;40.03;22.07;;;;;;;;;;4926206;28;20215;-61
2022/12/16 03:28:31;;;;;;;39.83;22.03;;;;;;;;;;4926845;28;20325;-61
2022/12/16 03:31:05;;;;;;;42.40;23.47;;;;;;;;;;4880767;29;20254;-63
2022/12/16 03:33:38;;;;;;;43.00;23.37;;;;;;;;;;4924812;28;20557;-63
2022/12/16 03:36:15;;;;;;;40.33;22.47;;;;;;;;;;4929060;28;20206;-64
2022/12/16 03:38:44;;;;;;;45.60;24.07;;;;;;;;;;4922541;28;20304;-63
2022/12/16 03:41:12;;;;;;;47.77;25.57;;;;;;;;;;4928409;28;20913;-63
2022/12/16 03:43:40;;;;;;;45.57;23.63;;;;;;;;;;4927300;28;20308;-63
2022/12/16 03:46:09;;;;;;;47.63;24.70;;;;;;;;;;4931197;28;20206;-63
2022/12/16 03:48:45;;;;;;;52.13;26.07;;;;;;;;;;4925380;28;20579;-63
2022/12/16 03:51:12;;;;;;;43.40;22.77;;;;;;;;;;4928170;28;20363;-63
2022/12/16 03:53:40;;;;;;;47.90;24.80;;;;;;;;;;4926108;28;20232;-63
2022/12/16 03:56:07;;;;;;;51.70;26.20;;;;;;;;;;4934031;28;20696;-62
2022/12/16 03:58:36;;;;;;;50.43;26.87;;;;;;;;;;4942666;28;20209;-64
2022/12/16 04:01:04;;;;;;;50.50;25.60;;;;;;;;;;4945220;28;20320;-64
2022/12/16 04:03:31;;;;;;;48.73;26.23;;;;;;;;;;4939123;28;20237;-63
2022/12/16 04:05:59;;;;;;;53.03;25.57;;;;;;;;;;4931571;28;20208;-63
2022/12/16 04:08:27;;;;;;;46.30;24.33;;;;;;;;;;4924072;28;20713;-62
2022/12/16 04:24:51;;;;;;;40.07;23.83;;;;;;;;;;4927497;28;20221;-63
2022/12/16 04:27:23;;;;;;;36.10;22.87;;;;;;;;;;4924410;28;20217;-63
